Terminal Aerodrome Forecast
Issued by NWS Sterling, VA

Current Version | Previous Version | Graphics & Text | Print | Product List | Glossary On
Versions: 1 2 3 4 5 6 7 8 9 10 11 12 13 14 15 16 17 18 19 20 21
000
FTUS41 KLWX 262040 AAA
TAFIAD
TAF AMD
KIAD 262040Z 2621/2724 20008KT P6SM SCT050
     FM262130 20008KT P6SM VCTS SCT050CB BKN090
     FM270000 23005KT P6SM SCT050 OVC090
     FM270300 14004KT P6SM SCT050 OVC090
     FM271000 19008KT P6SM SCT015 BKN090
     FM271600 21008KT P6SM -SHRA BKN090 BKN100=

USA.gov is the U.S. government's official web portal to all federal, state and local government web resources and services.